Time;durP1;ratioP1;P1;durP2;ratioP2;P2;SDS_P1;SDS_P2;PMS_P1;PMS_P2;Temp;Humidity;BMP_temperature;BMP_pressure;BME280_temperature;BME280_humidity;BME280_pressure;Samples;Min_cycle;Max_cycle;Signal;HPM_P1;HPM_P2
2022/06/06 00:00:58;;;;;;;;;;;15.08;34.34;;;;;;2674705;76;22253;-91
2022/06/06 00:04:27;;;;;;;;;;;15.08;34.58;;;;;;2675324;76;22189;-90
2022/06/06 00:07:56;;;;;;;8.55;3.05;;;15.08;34.66;;;;;;2675013;76;21000;-91
2022/06/06 00:11:24;;;;;;;;;;;15.07;34.62;;;;;;2675314;76;22183;-91
2022/06/06 00:14:53;;;;;;;7.22;2.65;;;15.01;36.65;;;;;;2674964;76;20969;-91
2022/06/06 00:18:21;;;;;;;;;;;15.00;38.33;;;;;;2675179;76;22149;-91
2022/06/06 00:21:50;;;;;;;5.70;2.60;;;14.97;39.55;;;;;;2675134;76;20946;-91
2022/06/06 00:25:18;;;;;;;;;;;14.98;41.17;;;;;;2675294;76;22534;-90
2022/06/06 00:28:49;;;;;;;6.58;2.98;;;15.04;41.86;;;;;;2674936;76;21020;-91
2022/06/06 00:36:03;;;;;;;13.38;2.77;;;15.08;41.88;;;;;;2675539;76;20403;-91
2022/06/06 00:39:32;;;;;;;;;;;15.08;43.12;;;;;;2675223;76;22129;-91
2022/06/06 00:43:03;;;;;;;7.90;2.70;;;15.10;42.20;;;;;;2674963;76;20935;-91
2022/06/06 00:46:30;;;;;;;;;;;15.10;40.85;;;;;;2675697;76;22086;-91
2022/06/06 00:50:03;;;;;;;16.55;2.98;;;15.08;40.34;;;;;;2675120;76;20983;-91
2022/06/06 00:53:32;;;;;;;;;;;15.07;39.44;;;;;;2675223;76;22115;-91
2022/06/06 00:57:02;;;;;;;11.45;3.15;;;15.04;38.53;;;;;;2675131;76;20972;-89
2022/06/06 01:00:30;;;;;;;;;;;14.97;36.92;;;;;;2675562;76;22127;-91
2022/06/06 01:04:00;;;;;;;10.95;3.62;;;14.93;35.67;;;;;;2674823;76;20971;-91
2022/06/06 01:07:29;;;;;;;;;;;14.88;35.01;;;;;;2675466;76;22130;-91
2022/06/06 01:10:57;;;;;;;7.78;3.08;;;14.82;34.49;;;;;;2674851;76;20927;-90
2022/06/06 01:14:26;;;;;;;;;;;14.80;34.01;;;;;;2675666;76;22582;-91
2022/06/06 01:18:05;;;;;;;11.65;3.15;;;14.74;33.77;;;;;;2674921;76;21437;-91
2022/06/06 01:21:36;;;;;;;10.80;3.67;;;14.73;33.49;;;;;;2675337;76;22098;-91
2022/06/06 01:25:04;;;;;;;;;;;14.69;33.31;;;;;;2675495;76;22638;-91
2022/06/06 01:28:39;;;;;;;7.97;3.35;;;14.68;33.12;;;;;;2674566;76;21034;-91
2022/06/06 01:32:07;;;;;;;;;;;14.64;33.01;;;;;;2674735;76;22199;-91
2022/06/06 01:35:35;;;;;;;;;;;14.60;32.81;;;;;;2675139;76;22082;-91
2022/06/06 01:39:06;;;;;;;15.70;4.15;;;14.58;32.47;;;;;;2674656;76;20991;-91
2022/06/06 01:42:34;;;;;;;;;;;14.54;32.41;;;;;;2675117;76;22148;-91
2022/06/06 01:46:05;;;;;;;7.58;2.83;;;14.51;31.78;;;;;;2674641;76;20977;-91
2022/06/06 01:49:33;;;;;;;;;;;14.42;31.77;;;;;;2675200;76;22120;-91
2022/06/06 01:53:04;;;;;;;12.63;3.58;;;14.47;31.82;;;;;;2676559;76;20979;-90
2022/06/06 01:56:32;;;;;;;;;;;14.39;32.40;;;;;;2676596;76;22205;-91
2022/06/06 02:00:01;;;;;;;6.72;3.10;;;14.36;32.46;;;;;;2674414;76;21555;-91
2022/06/06 02:03:30;;;;;;;;;;;14.33;31.32;;;;;;2675111;76;22102;-91
2022/06/06 02:06:59;;;;;;;11.63;3.50;;;14.27;30.81;;;;;;2675133;76;20983;-91
2022/06/06 02:10:27;;;;;;;;;;;14.22;30.28;;;;;;2674805;76;22687;-91
2022/06/06 02:13:56;;;;;;;6.58;3.10;;;14.19;30.13;;;;;;2675040;76;20996;-91
2022/06/06 02:17:24;;;;;;;;;;;14.15;29.80;;;;;;2675199;76;22711;-90
2022/06/06 02:20:54;;;;;;;6.58;2.52;;;14.10;29.52;;;;;;2674883;76;21014;-90
2022/06/06 02:24:23;;;;;;;;;;;14.05;29.29;;;;;;2675086;76;22579;-90
2022/06/06 02:27:51;;;;;;;8.75;3.08;;;14.04;29.24;;;;;;2674964;76;21034;-91
2022/06/06 02:31:20;;;;;;;;;;;13.98;29.04;;;;;;2674708;76;22161;-91
2022/06/06 02:34:48;;;;;;;7.10;2.77;;;13.95;28.97;;;;;;2674534;76;21321;-91
2022/06/06 02:38:17;;;;;;;;;;;13.93;28.79;;;;;;2674925;76;22198;-91
2022/06/06 02:41:46;;;;;;;7.78;3.42;;;13.92;29.00;;;;;;2675112;76;20994;-90
2022/06/06 02:45:17;;;;;;;;;;;13.91;29.59;;;;;;2674992;76;22161;-91
2022/06/06 02:48:46;;;;;;;7.65;3.15;;;13.89;29.99;;;;;;2675025;76;21010;-91
2022/06/06 02:52:14;;;;;;;;;;;13.83;29.96;;;;;;2674909;76;22064;-91
2022/06/06 02:55:43;;;;;;;8.80;3.10;;;13.86;29.98;;;;;;2674658;76;21022;-91
2022/06/06 02:59:11;;;;;;;;;;;13.84;29.87;;;;;;2675078;76;22192;-91
2022/06/06 03:02:40;;;;;;;8.43;3.25;;;13.84;29.88;;;;;;2675111;76;20956;-90
2022/06/06 03:06:08;;;;;;;;;;;13.89;29.91;;;;;;2674819;76;22128;-91
2022/06/06 03:09:57;;;;;;;21.35;4.00;;;13.85;29.59;;;;;;2674348;76;21011;-91
2022/06/06 03:13:27;;;;;;;21.60;3.85;;;13.83;29.18;;;;;;2674644;76;22203;-91
2022/06/06 03:20:46;;;;;;;7.78;3.05;;;13.79;28.92;;;;;;2674853;76;20897;-91
2022/06/06 03:24:15;;;;;;;;;;;13.78;28.88;;;;;;2674593;76;22066;-91
2022/06/06 03:27:58;;;;;;;6.83;3.25;;;13.79;28.76;;;;;;2674350;76;21026;-91
2022/06/06 03:31:41;;;;;;;18.73;3.77;;;13.79;29.43;;;;;;2674501;76;22168;-91
2022/06/06 03:35:11;;;;;;;5.55;3.00;;;13.83;29.34;;;;;;2674577;76;22096;-91
2022/06/06 03:38:39;;;;;;;;;;;13.81;29.51;;;;;;2674808;76;22237;-91
2022/06/06 03:42:13;;;;;;;12.65;3.40;;;13.85;29.61;;;;;;2674395;76;20979;-91
2022/06/06 03:45:41;;;;;;;;;;;14.00;30.30;;;;;;2674980;76;22655;-91
2022/06/06 03:49:18;;;;;;;8.30;3.30;;;14.34;31.80;;;;;;2674195;76;21020;-91
2022/06/06 03:52:49;;;;;;;5.20;3.00;;;14.70;33.02;;;;;;2675167;76;22191;-91
2022/06/06 03:56:17;;;;;;;;;;;15.60;30.83;;;;;;2675194;76;22171;-91
2022/06/06 03:59:47;;;;;;;5.28;3.30;;;15.90;30.76;;;;;;2674268;76;20985;-91
2022/06/06 04:03:15;;;;;;;;;;;15.96;32.71;;;;;;2674945;76;22233;-91
2022/06/06 04:06:46;;;;;;;12.00;3.50;;;15.88;32.91;;;;;;2674094;76;21377;-91
2022/06/06 04:10:14;;;;;;;;;;;15.83;33.80;;;;;;2674905;76;22633;-91
2022/06/06 04:14:00;;;;;;;11.38;3.42;;;15.96;34.71;;;;;;2674636;76;21021;-91
2022/06/06 04:17:33;;;;;;;8.28;3.90;;;16.34;34.89;;;;;;2674472;76;22165;-91
2022/06/06 04:21:01;;;;;;;;;;;17.01;31.76;;;;;;2675070;76;22616;-91
2022/06/06 04:24:32;;;;;;;5.60;2.98;;;18.25;25.43;;;;;;2674732;76;21016;-91
2022/06/06 04:28:00;;;;;;;;;;;17.20;29.13;;;;;;2674664;76;22642;-91
2022/06/06 04:31:31;;;;;;;5.78;2.87;;;16.81;32.37;;;;;;2674351;76;21103;-91
2022/06/06 04:34:59;;;;;;;;;;;16.60;32.98;;;;;;2675412;76;22204;-91
2022/06/06 04:38:35;;;;;;;5.90;2.77;;;16.45;32.64;;;;;;2674386;76;20985;-91
2022/06/06 04:42:06;;;;;;;10.20;3.40;;;16.25;32.10;;;;;;2675019;76;22193;-90
2022/06/06 04:45:34;;;;;;;;;;;16.13;32.08;;;;;;2674748;76;23245;-91
2022/06/06 04:49:03;;;;;;;6.85;2.72;;;16.08;32.02;;;;;;2675065;76;21179;-91
2022/06/06 04:52:31;;;;;;;;;;;16.16;31.73;;;;;;2675518;76;22214;-91
2022/06/06 04:56:01;;;;;;;9.85;3.70;;;16.25;31.59;;;;;;2674870;76;20953;-91
2022/06/06 04:59:29;;;;;;;;;;;16.30;31.61;;;;;;2675061;76;22223;-91
2022/06/06 05:02:58;;;;;;;4.80;2.75;;;16.39;32.09;;;;;;2674574;76;20928;-91
2022/06/06 05:06:26;;;;;;;;;;;16.47;32.39;;;;;;2675311;76;22175;-91
2022/06/06 05:10:09;;;;;;;4.03;2.35;;;16.57;32.85;;;;;;2674882;76;20969;-91
2022/06/06 05:13:39;;;;;;;8.65;2.77;;;16.70;33.93;;;;;;2674947;76;22188;-91
2022/06/06 05:17:07;;;;;;;;;;;16.87;34.16;;;;;;2675586;76;22105;-91
2022/06/06 05:20:54;;;;;;;4.92;2.60;;;16.96;34.48;;;;;;2674350;76;21039;-91
2022/06/06 05:24:41;;;;;;;10.80;2.60;;;17.14;34.83;;;;;;2674938;76;22185;-92
2022/06/06 05:28:14;;;;;;;4.97;2.90;;;17.37;35.24;;;;;;2675134;76;22168;-91
2022/06/06 05:31:43;;;;;;;;;;;17.59;35.02;;;;;;2675032;76;22680;-91
2022/06/06 05:35:30;;;;;;;4.70;2.75;;;17.64;35.24;;;;;;2674779;76;21501;-91
2022/06/06 05:39:11;;;;;;;9.33;3.35;;;17.74;34.66;;;;;;2675111;76;22266;-92
2022/06/06 05:42:44;;;;;;;4.40;2.73;;;17.77;34.69;;;;;;2675208;76;22391;-92
2022/06/06 05:46:12;;;;;;;;;;;17.84;35.04;;;;;;2675630;76;22221;-91
2022/06/06 05:49:58;;;;;;;3.98;2.55;;;17.88;35.32;;;;;;2675005;76;21016;-91
2022/06/06 05:53:34;;;;;;;6.67;2.85;;;17.96;35.83;;;;;;2675015;76;22187;-92
2022/06/06 05:57:08;;;;;;;7.20;2.70;;;18.05;35.63;;;;;;2675522;76;22231;-91
2022/06/06 06:00:36;;;;;;;;;;;18.17;35.72;;;;;;2674902;76;22348;-91
2022/06/06 06:04:07;;;;;;;4.70;2.30;;;18.51;35.66;;;;;;2675162;76;20990;-91
2022/06/06 06:07:35;;;;;;;;;;;18.68;35.58;;;;;;2675488;76;22180;-91
2022/06/06 06:11:20;;;;;;;8.83;3.12;;;18.51;34.33;;;;;;2674797;76;21010;-91
2022/06/06 06:15:06;;;;;;;9.95;2.90;;;18.34;34.36;;;;;;2675128;76;22191;-92
2022/06/06 06:18:45;;;;;;;6.67;2.50;;;18.41;35.54;;;;;;2674777;76;22185;-92
2022/06/06 06:22:16;;;;;;;4.73;2.83;;;18.99;35.75;;;;;;2675151;76;22156;-91
2022/06/06 06:25:44;;;;;;;;;;;19.85;33.06;;;;;;2675209;76;22163;-92
2022/06/06 06:29:13;;;;;;;8.28;2.62;;;20.48;30.35;;;;;;2674677;76;20973;-92
2022/06/06 06:32:41;;;;;;;;;;;21.19;28.81;;;;;;2675246;76;22606;-92
2022/06/06 06:36:12;;;;;;;2.85;2.12;;;21.33;27.52;;;;;;2674681;76;20968;-92
2022/06/06 06:39:40;;;;;;;;;;;21.01;25.65;;;;;;2675498;76;22224;-92
2022/06/06 06:43:23;;;;;;;3.37;1.90;;;20.86;27.28;;;;;;2674936;76;21145;-92
2022/06/06 06:46:53;;;;;;;3.45;2.45;;;20.89;28.03;;;;;;2675058;76;22218;-92
2022/06/06 06:50:21;;;;;;;;;;;20.94;29.01;;;;;;2675566;76;22154;-92
2022/06/06 06:53:58;;;;;;;3.85;1.87;;;20.55;27.80;;;;;;2674693;76;20957;-92
2022/06/06 06:57:34;;;;;;;6.85;1.95;;;20.37;30.48;;;;;;2674889;76;22181;-92
2022/06/06 07:01:12;;;;;;;3.65;2.20;;;20.04;29.87;;;;;;2674920;76;22203;-91
2022/06/06 07:08:49;;;;;;;2.52;2.10;;;19.72;29.43;;;;;;2674405;76;22246;-91
2022/06/06 07:12:26;;;;;;;4.05;2.25;;;19.75;30.68;;;;;;2675186;76;22125;-91
2022/06/06 07:16:02;;;;;;;4.75;2.35;;;19.81;29.76;;;;;;2675970;76;22113;-90
2022/06/06 07:19:42;;;;;;;5.00;2.80;;;19.91;30.75;;;;;;2678759;76;22108;-92
2022/06/06 07:23:34;;;;;;;6.85;2.95;;;20.30;29.96;;;;;;2674851;76;23459;-92
2022/06/06 07:27:02;;;;;;;;;;;20.56;29.64;;;;;;2675130;76;22740;-92
2022/06/06 07:30:33;;;;;;;4.17;1.90;;;21.01;27.65;;;;;;2674797;76;21469;-91
2022/06/06 07:34:01;;;;;;;;;;;21.95;23.69;;;;;;2675095;76;22183;-92
2022/06/06 07:37:49;;;;;;;6.08;2.10;;;22.80;20.09;;;;;;2674179;76;21441;-92
2022/06/06 07:41:29;;;;;;;3.40;1.70;;;23.31;20.42;;;;;;2674871;76;22207;-93
2022/06/06 07:45:17;;;;;;;2.05;1.50;;;23.38;19.23;;;;;;2675047;76;22207;-92
2022/06/06 07:48:48;;;;;;;5.92;1.75;;;23.06;18.46;;;;;;2675182;76;22212;-92
2022/06/06 07:52:16;;;;;;;;;;;23.84;22.24;;;;;;2675380;76;22663;-92
2022/06/06 07:55:53;;;;;;;2.55;1.85;;;24.57;21.78;;;;;;2674875;76;20961;-93
2022/06/06 07:59:30;;;;;;;2.10;1.60;;;24.91;19.65;;;;;;2675449;76;22562;-91
2022/06/06 08:03:15;;;;;;;3.25;1.70;;;24.88;13.87;;;;;;2675123;76;22234;-92
2022/06/06 08:06:55;;;;;;;3.95;1.60;;;25.04;17.67;;;;;;2674930;76;22183;-92
2022/06/06 08:10:28;;;;;;;2.30;1.70;;;25.23;14.03;;;;;;2675130;76;22170;-93
2022/06/06 08:13:56;;;;;;;;;;;25.40;16.52;;;;;;2675493;76;22147;-92
2022/06/06 08:17:27;;;;;;;4.87;1.57;;;25.44;17.00;;;;;;2674772;76;20969;-92
2022/06/06 08:20:56;;;;;;;;;;;25.42;14.66;;;;;;2676317;76;22337;-93
2022/06/06 08:24:32;;;;;;;5.40;1.77;;;25.52;16.68;;;;;;2677040;76;20997;-93
2022/06/06 08:28:02;;;;;;;5.95;1.55;;;25.83;16.74;;;;;;2677587;76;22221;-93
2022/06/06 08:31:31;;;;;;;;;;;26.04;15.79;;;;;;2678957;76;22222;-93
2022/06/06 08:34:59;;;;;;;4.55;1.52;;;26.02;11.63;;;;;;2676784;76;20956;-93
2022/06/06 08:38:28;;;;;;;;;;;25.93;13.69;;;;;;2676241;76;22665;-93
2022/06/06 08:42:01;;;;;;;2.05;1.50;;;25.92;13.24;;;;;;2677715;76;21015;-93
2022/06/06 08:45:33;;;;;;;;;;;25.31;10.08;;;;;;2679855;76;22283;-93
2022/06/06 08:49:01;;;;;;;;;;;24.84;14.32;;;;;;2682877;76;20331;-93
2022/06/06 08:52:32;;;;;;;2.65;1.42;;;24.85;15.74;;;;;;2682038;76;21398;-94
2022/06/06 08:56:00;;;;;;;;;;;25.14;15.21;;;;;;2683654;76;22192;-92
2022/06/06 08:59:47;;;;;;;11.15;3.47;;;26.28;14.23;;;;;;2683190;76;20963;-94
2022/06/06 09:03:26;;;;;;;2.35;1.32;;;26.77;7.53;;;;;;2683650;76;22196;-95
2022/06/06 09:06:57;;;;;;;5.50;2.07;;;27.20;10.82;;;;;;2684785;76;22597;-95
2022/06/06 09:10:25;;;;;;;;;;;27.22;10.94;;;;;;2683628;76;22203;-94
2022/06/06 09:13:59;;;;;;;3.22;1.55;;;27.32;10.44;;;;;;2686315;76;20883;-95
2022/06/06 09:17:32;;;;;;;;;;;27.75;9.03;;;;;;2687706;76;22124;-94
2022/06/06 09:20:57;;;;;;;;;;;28.17;8.25;;;;;;2687330;76;20403;-95
2022/06/06 09:24:46;;;;;;;2.05;1.30;;;27.69;7.18;;;;;;2687025;76;20976;-93
2022/06/06 09:28:26;;;;;;;2.90;1.50;;;27.13;9.85;;;;;;2686778;76;22226;-95
2022/06/06 09:31:56;;;;;;;3.80;1.20;;;26.38;4.75;;;;;;2684589;76;22211;-95
2022/06/06 09:35:25;;;;;;;;;;;26.13;8.57;;;;;;2686350;76;22107;-92
2022/06/06 09:39:13;;;;;;;7.67;1.50;;;26.11;8.26;;;;;;2685056;76;20955;-94
2022/06/06 09:42:40;;;;;;;;;;;26.81;11.38;;;;;;2687019;76;22193;-95
2022/06/06 09:46:11;;;;;;;2.10;1.35;;;26.51;9.46;;;;;;2686798;76;20241;-95
2022/06/06 09:49:41;;;;;;;;;;;25.81;7.84;;;;;;2687338;76;22179;-94
2022/06/06 09:53:12;;;;;;;5.03;1.25;;;25.06;8.62;;;;;;2686463;76;20954;-95
2022/06/06 10:00:34;;;;;;;3.12;1.47;;;25.01;11.79;;;;;;2686451;76;20325;-94
2022/06/06 10:04:03;;;;;;;;;;;24.71;5.63;;;;;;2686630;76;22215;-94
2022/06/06 10:07:50;;;;;;;2.37;1.32;;;24.61;6.51;;;;;;2686163;76;20978;-95
2022/06/06 10:11:32;;;;;;;2.05;1.15;;;24.86;9.36;;;;;;2687423;76;22154;-95
2022/06/06 10:15:05;;;;;;;2.15;1.15;;;24.71;7.03;;;;;;2686907;76;22198;-95
2022/06/06 10:18:39;;;;;;;2.50;1.35;;;25.02;4.35;;;;;;2686973;76;22007;-95
2022/06/06 10:22:07;;;;;;;;;;;25.00;5.97;;;;;;2687642;76;22091;-94
2022/06/06 10:25:40;;;;;;;;;;;25.04;4.41;;;;;;2687400;76;20334;-95
2022/06/06 10:29:27;;;;;;;4.92;1.10;;;24.98;6.28;;;;;;2687381;76;20905;-94
2022/06/06 10:32:58;;;;;;;1.22;1.00;;;24.65;6.08;;;;;;2687168;76;22144;-95
2022/06/06 10:36:26;;;;;;;;;;;24.11;4.46;;;;;;2687108;76;22122;-94
2022/06/06 10:40:00;;;;;;;2.80;1.60;;;23.86;7.24;;;;;;2687350;76;20915;-94
2022/06/06 10:43:32;;;;;;;2.10;1.30;;;23.79;8.79;;;;;;2687739;76;22058;-95
2022/06/06 10:47:00;;;;;;;;;;;24.04;8.97;;;;;;2687803;76;22109;-94
2022/06/06 10:51:36;;;;;;;4.00;1.50;;;24.26;8.73;;;;;;2687320;76;20888;-91
2022/06/06 10:54:23;;;;;;;3.80;1.50;;;24.50;7.58;;;;;;2687701;76;22150;-94
2022/06/06 10:57:56;;;;;;;5.10;1.40;;;24.65;8.56;;;;;;2687552;76;22136;-94
2022/06/06 11:01:25;;;;;;;;;;;25.01;7.21;;;;;;2687543;76;22195;-94
2022/06/06 11:04:55;;;;;;;2.62;1.30;;;25.40;3.42;;;;;;2687388;76;20954;-95
2022/06/06 11:08:23;;;;;;;;;;;25.71;3.47;;;;;;2687762;76;22191;-94
2022/06/06 11:12:10;;;;;;;2.52;1.30;;;26.15;0.03;;;;;;2687178;76;20946;-93
2022/06/06 11:15:47;;;;;;;3.45;1.30;;;26.37;-4.41;;;;;;2687179;76;22116;-94
2022/06/06 11:19:33;;;;;;;6.35;1.40;;;26.55;118.60;;;;;;2687437;76;22126;-94
2022/06/06 11:23:15;;;;;;;1.92;1.32;;;27.26;-4.79;;;;;;2679890;76;22212;-91
2022/06/06 11:26:55;;;;;;;2.17;1.20;;;27.69;-4.62;;;;;;2674806;76;22168;-91
2022/06/06 11:30:34;;;;;;;2.10;1.13;;;27.67;118.20;;;;;;2674951;76;22176;-92
2022/06/06 11:34:14;;;;;;;5.65;1.20;;;27.36;117.47;;;;;;2675246;76;22101;-92
2022/06/06 11:37:48;;;;;;;2.07;1.23;;;27.36;116.74;;;;;;2675451;76;22186;-92
2022/06/06 11:41:15;;;;;;;;;;;27.34;113.89;;;;;;2675247;76;22638;-91
2022/06/06 11:44:52;;;;;;;2.08;1.12;;;27.53;115.44;;;;;;2674176;76;21423;-92
2022/06/06 11:48:29;;;;;;;1.95;1.10;;;27.95;115.57;;;;;;2674968;76;22148;-91
2022/06/06 11:51:59;;;;;;;1.70;1.20;;;27.95;112.69;;;;;;2675542;76;22282;-91
2022/06/06 11:55:28;;;;;;;;;;;27.66;112.37;;;;;;2675618;76;22307;-91
2022/06/06 11:59:13;;;;;;;1.85;1.20;;;27.53;112.32;;;;;;2675043;76;20957;-92
2022/06/06 12:02:45;;;;;;;1.32;1.10;;;27.61;114.16;;;;;;2677813;76;22223;-92
2022/06/06 12:06:13;;;;;;;;;;;27.22;112.91;;;;;;2675870;76;22621;-92
2022/06/06 12:09:45;;;;;;;1.87;1.20;;;26.47;114.64;;;;;;2675180;76;21331;-91
2022/06/06 12:13:13;;;;;;;;;;;25.37;115.50;;;;;;2675667;76;22320;-91
2022/06/06 12:16:50;;;;;;;2.45;1.20;;;24.54;115.61;;;;;;2674979;76;20970;-91
2022/06/06 12:20:26;;;;;;;4.45;1.20;;;24.51;117.95;;;;;;2675590;76;22222;-91
2022/06/06 12:24:10;;;;;;;1.85;0.90;;;24.69;118.20;;;;;;2675187;76;22505;-91
2022/06/06 12:27:53;;;;;;;1.35;1.22;;;24.75;116.61;;;;;;2675458;76;22201;-90
2022/06/06 12:31:26;;;;;;;4.20;1.07;;;24.87;117.67;;;;;;2675569;76;22544;-91
2022/06/06 12:34:55;;;;;;;;;;;25.05;115.89;;;;;;2675837;76;22233;-91
2022/06/06 12:38:41;;;;;;;7.03;1.27;;;25.00;116.41;;;;;;2675264;76;20969;-91
2022/06/06 12:42:21;;;;;;;3.22;1.52;;;24.68;116.24;;;;;;2675366;76;22474;-91
2022/06/06 12:46:01;;;;;;;3.20;1.20;;;24.25;116.35;;;;;;2675780;76;22189;-91
2022/06/06 12:49:48;;;;;;;2.50;1.10;;;24.14;117.24;;;;;;2675249;76;22125;-91
2022/06/06 12:53:31;;;;;;;1.52;1.15;;;24.28;116.96;;;;;;2675476;76;22665;-91
2022/06/06 12:57:03;;;;;;;5.20;1.07;;;24.55;117.83;;;;;;2675198;76;22229;-91
2022/06/06 13:04:22;;;;;;;2.25;0.90;;;25.29;114.61;;;;;;2674919;76;20911;-91
2022/06/06 13:07:53;;;;;;;;;;;25.43;113.69;;;;;;2675232;76;22243;-91
2022/06/06 13:11:21;;;;;;;;;;;24.92;114.33;;;;;;2675679;76;22159;-91
2022/06/06 13:14:55;;;;;;;8.60;1.05;;;24.50;115.30;;;;;;2675264;76;21000;-91
2022/06/06 13:18:23;;;;;;;;;;;24.25;115.77;;;;;;2675423;76;22266;-91
2022/06/06 13:22:03;;;;;;;1.25;1.15;;;23.99;114.79;;;;;;2674559;76;21007;-91
2022/06/06 13:25:36;;;;;;;3.25;1.10;;;23.95;115.03;;;;;;2675173;76;22086;-91
2022/06/06 13:29:04;;;;;;;;;;;24.20;116.06;;;;;;2675599;76;22198;-91
2022/06/06 13:32:38;;;;;;;1.80;1.22;;;24.48;115.48;;;;;;2675245;76;20984;-91
2022/06/06 13:36:06;;;;;;;;;;;24.46;115.18;;;;;;2675442;76;22601;-91
2022/06/06 13:39:46;;;;;;;1.92;1.00;;;24.66;114.67;;;;;;2674758;76;20976;-91
2022/06/06 13:43:20;;;;;;;2.83;0.90;;;24.98;113.56;;;;;;2675003;76;22166;-91
2022/06/06 13:46:48;;;;;;;;;;;25.13;113.50;;;;;;2675690;76;22229;-91
2022/06/06 13:50:28;;;;;;;0.95;0.82;;;25.18;114.09;;;;;;2674923;76;20992;-91
2022/06/06 13:54:02;;;;;;;1.00;0.90;;;25.80;113.09;;;;;;2674803;76;22236;-91
2022/06/06 13:57:31;;;;;;;;;;;26.64;112.89;;;;;;2675413;76;22180;-92
2022/06/06 14:00:59;;;;;;;;;;;29.08;109.10;;;;;;2675607;76;20439;-91
2022/06/06 14:04:46;;;;;;;4.67;1.07;;;28.46;106.56;;;;;;2674566;76;21024;-92
2022/06/06 14:08:24;;;;;;;4.70;1.07;;;34.35;95.22;;;;;;2675358;76;22082;-92
2022/06/06 14:11:49;;;;;;;;;;;37.76;89.16;;;;;;2675282;76;22274;-92
2022/06/06 14:15:18;;;;;;;;;;;40.09;83.29;;;;;;2675619;76;22595;-92
2022/06/06 14:18:47;;;;;;;1.52;0.90;;;34.66;83.67;;;;;;2675152;76;20997;-92
2022/06/06 14:22:15;;;;;;;;;;;38.19;84.35;;;;;;2674904;76;22198;-92
2022/06/06 14:25:45;;;;;;;0.88;0.80;;;40.98;77.25;;;;;;2675148;76;21018;-92
2022/06/06 14:29:13;;;;;;;;;;;41.57;75.18;;;;;;2675515;76;22142;-92
2022/06/06 14:32:47;;;;;;;3.20;1.07;;;41.06;75.02;;;;;;2674785;76;21029;-92
2022/06/06 14:36:15;;;;;;;;;;;39.27;73.45;;;;;;2675392;76;22606;-92
2022/06/06 14:39:45;;;;;;;1.55;0.90;;;36.71;75.16;;;;;;2675119;76;21007;-92
2022/06/06 14:43:13;;;;;;;;;;;35.45;77.51;;;;;;2675215;76;22553;-92
2022/06/06 14:46:52;;;;;;;1.25;0.90;;;37.95;74.33;;;;;;2674782;76;21022;-92
2022/06/06 14:54:11;;;;;;;5.62;1.85;;;40.61;70.30;;;;;;2674796;76;22191;-92
2022/06/06 14:57:39;;;;;;;;;;;40.25;68.18;;;;;;2675170;76;22194;-92
2022/06/06 15:01:10;;;;;;;2.47;0.90;;;39.87;67.96;;;;;;2674279;76;21411;-92
2022/06/06 15:04:43;;;;;;;;;;;39.08;68.38;;;;;;2675081;76;22113;-92
2022/06/06 15:08:16;;;;;;;1.45;0.95;;;36.72;69.65;;;;;;2674614;76;21024;-92
2022/06/06 15:11:45;;;;;;;1.70;0.80;;;37.11;71.55;;;;;;2675384;76;22196;-92
2022/06/06 15:15:14;;;;;;;;;;;38.05;69.99;;;;;;2674946;76;22616;-92
2022/06/06 15:18:47;;;;;;;0.70;0.70;;;38.65;69.46;;;;;;2674991;76;20989;-92
2022/06/06 15:22:16;;;;;;;;;;;40.90;68.07;;;;;;2675348;76;22172;-92
2022/06/06 15:25:58;;;;;;;1.10;1.00;;;43.53;65.43;;;;;;2675072;76;21004;-91
2022/06/06 15:29:32;;;;;;;2.15;1.05;;;41.62;65.14;;;;;;2675548;76;22118;-92
2022/06/06 15:33:00;;;;;;;;;;;39.22;65.91;;;;;;2675142;76;22270;-92
2022/06/06 15:36:43;;;;;;;1.10;0.90;;;40.27;66.34;;;;;;2674242;76;21014;-92
2022/06/06 15:40:25;;;;;;;2.42;0.90;;;41.60;62.80;;;;;;2675061;76;22114;-92
2022/06/06 15:43:59;;;;;;;4.10;0.97;;;42.99;61.55;;;;;;2674968;76;22694;-92
2022/06/06 15:47:37;;;;;;;2.60;1.40;;;43.71;59.97;;;;;;2675170;76;22209;-93
2022/06/06 15:51:23;;;;;;;1.80;1.30;;;43.97;59.65;;;;;;2674922;76;22205;-92
2022/06/06 15:54:58;;;;;;;4.45;0.93;;;37.35;63.75;;;;;;2674461;76;22453;-92
2022/06/06 15:58:26;;;;;;;;;;;34.61;71.26;;;;;;2675267;76;22529;-91
2022/06/06 16:01:54;;;;;;;;;;;37.44;68.90;;;;;;2675248;76;21028;-92
2022/06/06 16:05:25;;;;;;;1.32;1.22;;;39.95;64.47;;;;;;2674357;76;20850;-91
2022/06/06 16:08:53;;;;;;;;;;;36.58;66.40;;;;;;2675122;76;22136;-91
2022/06/06 16:12:41;;;;;;;2.55;0.75;;;33.79;70.42;;;;;;2674530;76;21004;-92
2022/06/06 16:16:21;;;;;;;2.60;1.50;;;32.33;74.71;;;;;;2675132;76;22111;-92
2022/06/06 16:19:52;;;;;;;2.03;0.97;;;31.26;77.10;;;;;;2674983;76;22208;-92
2022/06/06 16:23:20;;;;;;;;;;;30.78;78.34;;;;;;2674742;76;22181;-91
2022/06/06 16:26:51;;;;;;;0.90;0.85;;;30.83;78.69;;;;;;2674601;76;20974;-91
2022/06/06 16:30:19;;;;;;;;;;;30.78;79.30;;;;;;2675491;76;22153;-91
2022/06/06 16:33:50;;;;;;;1.10;1.00;;;34.36;76.30;;;;;;2674386;76;21029;-91
2022/06/06 16:37:18;;;;;;;;;;;38.17;69.72;;;;;;2674904;76;22212;-92
2022/06/06 16:40:52;;;;;;;2.87;1.35;;;37.02;68.44;;;;;;2674380;76;20980;-92
2022/06/06 16:48:24;;;;;;;1.27;0.90;;;36.95;68.55;;;;;;2675087;76;20388;-91
2022/06/06 16:51:58;;;;;;;1.72;1.20;;;37.58;68.37;;;;;;2675180;76;22114;-92
2022/06/06 16:55:24;;;;;;;;;;;36.37;68.83;;;;;;2675205;76;22251;-92
2022/06/06 16:58:55;;;;;;;4.28;1.40;;;33.59;73.40;;;;;;2674978;76;21021;-91
2022/06/06 17:02:24;;;;;;;;;;;31.64;77.13;;;;;;2675669;76;22159;-92
2022/06/06 17:09:57;;;;;;;1.42;1.00;;;29.73;81.52;;;;;;2675418;76;22228;-91
2022/06/06 17:13:29;;;;;;;2.75;1.30;;;28.99;83.18;;;;;;2674143;76;22261;-91
2022/06/06 17:17:00;;;;;;;;;;;28.32;84.81;;;;;;2675775;76;22234;-91
2022/06/06 17:20:30;;;;;;;1.17;0.85;;;27.98;86.29;;;;;;2674909;76;20967;-91
2022/06/06 17:23:58;;;;;;;;;;;27.95;87.67;;;;;;2675357;76;22226;-91
2022/06/06 17:27:29;;;;;;;3.90;0.80;;;27.81;89.08;;;;;;2674701;76;20977;-91
2022/06/06 17:30:57;;;;;;;;;;;27.46;89.24;;;;;;2675434;76;22140;-91
2022/06/06 17:34:31;;;;;;;1.62;1.30;;;27.11;89.77;;;;;;2681454;76;21030;-92
2022/06/06 17:37:59;;;;;;;;;;;26.70;92.18;;;;;;2685342;76;22091;-92
2022/06/06 17:41:28;;;;;;;;;;;26.31;94.35;;;;;;2685104;76;20388;-92
2022/06/06 17:45:01;;;;;;;1.05;0.80;;;26.02;95.03;;;;;;2684170;76;21013;-92
2022/06/06 17:48:30;;;;;;;;;;;25.81;96.36;;;;;;2683760;76;22259;-93
2022/06/06 17:52:19;;;;;;;2.33;1.15;;;25.60;97.93;;;;;;2683387;76;21509;-92
2022/06/06 17:56:07;;;;;;;1.22;0.95;;;25.42;99.25;;;;;;2683285;76;22153;-92
2022/06/06 17:59:38;;;;;;;2.12;1.10;;;25.21;101.16;;;;;;2682537;76;22695;-91
2022/06/06 18:03:06;;;;;;;;;;;25.06;102.06;;;;;;2683365;76;22248;-92
2022/06/06 18:06:48;;;;;;;2.52;1.10;;;24.99;102.14;;;;;;2682410;76;21004;-92
2022/06/06 18:10:25;;;;;;;4.05;0.88;;;25.02;102.32;;;;;;2683300;76;22149;-92
2022/06/06 18:14:00;;;;;;;1.20;1.10;;;24.99;103.07;;;;;;2683279;76;22230;-91
2022/06/06 18:17:28;;;;;;;;;;;24.97;104.15;;;;;;2682940;76;22094;-92
2022/06/06 18:20:59;;;;;;;2.52;1.22;;;25.00;105.14;;;;;;2682908;76;20962;-92
2022/06/06 18:24:28;;;;;;;;;;;25.05;105.79;;;;;;2683554;76;22208;-91
2022/06/06 18:27:56;;;;;;;1.35;1.17;;;25.20;105.95;;;;;;2683296;76;21012;-93
2022/06/06 18:31:31;;;;;;;2.45;1.25;;;25.27;106.35;;;;;;2683367;76;22690;-93
2022/06/06 18:34:59;;;;;;;;;;;25.37;107.07;;;;;;2683897;76;22126;-92
2022/06/06 18:38:41;;;;;;;1.20;1.10;;;25.45;107.74;;;;;;2684116;76;20962;-92
2022/06/06 18:42:11;;;;;;;3.75;0.98;;;25.37;108.09;;;;;;2685144;76;22135;-90
2022/06/06 18:45:39;;;;;;;;;;;25.23;108.33;;;;;;2684517;76;22163;-93
2022/06/06 18:49:10;;;;;;;5.12;1.30;;;25.07;108.79;;;;;;2683850;76;20961;-92
2022/06/06 18:52:38;;;;;;;;;;;24.73;109.55;;;;;;2684761;76;22160;-93
2022/06/06 18:56:08;;;;;;;2.72;2.08;;;24.41;111.11;;;;;;2683607;76;21003;-93
2022/06/06 18:59:37;;;;;;;;;;;24.02;112.26;;;;;;2684082;76;22167;-93
2022/06/06 19:03:07;;;;;;;6.75;1.70;;;23.72;113.64;;;;;;2683337;76;21015;-92
2022/06/06 19:06:37;;;;;;;;;;;23.47;115.19;;;;;;2684434;76;22726;-92
2022/06/06 19:10:11;;;;;;;2.55;1.57;;;23.24;116.51;;;;;;2681237;76;20963;-92
2022/06/06 19:13:40;;;;;;;;;;;23.01;117.67;;;;;;2681863;76;22576;-92
2022/06/06 19:17:09;;;;;;;;;;;22.82;117.89;;;;;;2680864;76;20398;-92
2022/06/06 19:20:41;;;;;;;2.00;1.40;;;22.67;118.73;;;;;;2679638;76;21001;-92
2022/06/06 19:24:11;;;;;;;;;;;22.48;-5.53;;;;;;2680644;76;22210;-91
2022/06/06 19:27:40;;;;;;;2.98;1.52;;;22.32;-4.64;;;;;;2679584;76;20975;-92
2022/06/06 19:31:12;;;;;;;;;;;22.20;-3.83;;;;;;2679870;76;22665;-92
2022/06/06 19:34:42;;;;;;;3.87;1.72;;;22.11;-3.44;;;;;;2679268;76;21012;-92
2022/06/06 19:38:10;;;;;;;;;;;22.04;-3.07;;;;;;2679925;76;22581;-92
2022/06/06 19:41:41;;;;;;;2.42;1.60;;;21.91;-2.63;;;;;;2679436;76;20988;-93